Main page
METAR-TAF:

METAR-TAF

Airports :

Samedan Airport

St. Moritz, Switzerland

latitude: 46-32-03N, longitude: 9-53-03E, elevation: 1707 m

Current weather observation

The report was made 14 minutes ago, at 23:50 UTC
Wind 2 kt from the Northeast
Temperature -6°C
Humidity 100%
Pressure 1003 hPa
Visibility: 0300 m
freezing fog

METAR: LSZS 172350Z AUTO 05002KT 0300 FZFG VV001 M06/M06 Q1003

Time: 01:04 (00:04 UTC)

Forecast

The report was made 9 hours and 39 minutes ago, at 14:25 UTC
Forecast valid from 17 at 15 UTC to 17 at 24 UTC
Wind 4 kt from variable directions
Visibility: 5000 m
Broken clouds at a height of 2800 ft
light snow
Temporary
from 17 at 15 UTC to 17 at 24 UTC
Probability 30% :
Temporary
from 17 at 15 UTC to 17 at 18 UTC
Visibility: 1200 m
snow

TAF: LSZS 171425Z 1715/1724 VRB04KT 5000 -SN BKN028 TX00/1715Z TEMPO 1715/1724 NSW PROB30 TEMPO 1715/1718 1200 SN

Weather observations and forecasts of more than 4000 airports (METAR and TAF reports).

The available stations are represented by yellow and red dots on the map.

Hover mouse over dot to see the name of the station.

Then click to see weather observations and forecasts.

To change the map : click on the green buttons with a black cross to zoom in, on the green button with a dash to zoom out, or on the green arrows for adjacent maps.


METAR-TAF: